Latest Weather Observations for Lucinda

IDQ60801

Issued at 2:02 pm EST Thursday 11 February 2016 (issued every 30 minutes, with the page automatically refreshed every 10 minutes)

About weather observations | Map of weather stations | Latest weather observations for QLD | Other Formats
Station Details ID: 032141 Name: LUCINDA POINT Lat: -18.52 Lon: 146.39 Height: 10.0 m
Data from the previous 72 hours. | See also: Recent months at Lucinda
Date/Time
EST
Temp
°C
App
Temp
°C
Dew
Point
Rel
Hum
%
Delta-T
°C
Wind Press
QNH
hPa
Press
MSL
hPa
Rain
since 9 am
mm
Dir
 
Spd
km/h
Gust
km/h
Spd
kts
Gust
kts
11/02:00pm 28.8 31.1 22.1 67 4.5 ESE 13 24 7 13 1007.2 1007.1 0.2
11/01:30pm 29.0 31.8 23.0 70 4.1 SE 13 20 7 11 1007.4 1007.3 0.2
11/01:00pm 28.6 31.2 22.6 70 4.1 S 13 20 7 11 1007.8 1007.7 0.2
11/12:30pm 28.1 29.7 22.1 70 4.0 S 17 22 9 12 1008.4 1008.3 0.0
11/12:00pm 28.2 29.8 22.2 70 4.1 S 17 20 9 11 1008.8 1008.7 0.0
11/11:30am 28.1 30.5 23.0 74 3.5 SSW 15 20 8 11 1009.0 1008.9 0.0
11/11:00am 27.5 30.4 23.1 77 3.0 SSW 13 20 7 11 1009.2 1009.1 0.0
11/10:30am 26.9 29.5 22.7 78 2.8 SW 13 17 7 9 1009.4 1009.3 0.0
11/10:00am 26.5 29.5 22.6 79 2.6 SW 11 15 6 8 1009.6 1009.5 0.0
11/09:30am 26.3 28.9 22.6 80 2.5 W 13 17 7 9 1009.6 1009.5 0.0
11/09:00am 25.9 28.9 23.4 86 1.7 WSW 13 19 7 10 1009.4 1009.3 2.2
11/08:30am 25.2 26.5 22.7 86 1.7 WSW 20 22 11 12 1009.4 1009.3 2.2
11/08:00am 25.8 27.6 22.5 82 2.2 WSW 17 22 9 12 1009.2 1009.1 2.2
11/07:30am 27.0 29.6 23.3 80 2.5 SSW 15 17 8 9 1008.7 1008.6 2.2
11/07:00am 25.7 25.2 22.8 84 2.0 S 30 35 16 19 1008.5 1008.4 2.2
11/06:30am 23.9 24.8 22.0 89 1.3 SSW 20 28 11 15 1008.6 1008.5 2.2
11/06:00am 24.3 24.5 23.4 95 0.6 WSW 28 33 15 18 1007.8 1007.7 0.0
11/05:30am 24.4 25.1 23.0 92 0.9 W 24 32 13 17 1007.5 1007.4 0.0
11/05:00am 24.7 24.7 23.1 91 1.1 WSW 28 32 15 17 1007.3 1007.2 0.0
11/04:30am 24.6 25.9 23.4 93 0.8 WSW 22 26 12 14 1007.1 1007.0 0.0
11/04:00am 25.2 27.7 23.1 88 1.4 WSW 15 20 8 11 1007.0 1006.9 0.0
11/03:30am 27.9 30.6 22.8 74 3.5 ESE 13 20 7 11 1006.8 1006.7 0.0
11/03:00am 28.0 29.2 22.2 70 3.9 ESE 19 28 10 15 1006.6 1006.5 0.0
11/02:30am 28.1 29.5 21.9 69 4.2 SE 17 28 9 15 1006.7 1006.6 0.0
11/02:00am 28.0 29.4 22.5 72 3.7 ESE 19 28 10 15 1006.9 1006.8 0.0
11/01:30am 28.0 28.9 22.7 73 3.6 ESE 22 30 12 16 1007.2 1007.1 0.0
11/01:00am 28.1 28.7 22.1 70 4.0 ESE 22 32 12 17 1007.4 1007.3 0.0
11/12:30am 28.1 29.0 22.6 72 3.7 ESE 22 32 12 17 1007.8 1007.7 0.0
11/12:00am 28.1 28.8 22.3 70 3.9 ESE 22 33 12 18 1008.2 1008.1 0.0
 
Date/Time
EST
Temp
°C
App
Temp
°C
Dew
Point
Rel
Hum
%
Delta-T
°C
Wind Press
QNH
hPa
Press
MSL
hPa
Rain
since 9 am
mm
Dir
 
Spd
km/h
Gust
km/h
Spd
kts
Gust
kts
10/11:30pm 28.2 28.6 22.4 71 3.9 ESE 24 32 13 17 1008.5 1008.4 0.0
10/11:00pm 28.1 29.7 23.2 74 3.4 ESE 20 30 11 16 1008.7 1008.6 0.0
10/10:30pm 28.1 28.7 22.8 73 3.6 ESE 24 30 13 16 1008.6 1008.5 0.0
10/10:00pm 28.2 29.0 23.1 74 3.5 ESE 24 32 13 17 1008.7 1008.6 0.0
10/09:30pm 28.2 28.7 23.3 75 3.4 ESE 26 33 14 18 1008.5 1008.4 0.0
10/09:00pm 28.1 29.3 23.2 74 3.4 ESE 22 28 12 15 1008.6 1008.5 0.0
10/08:30pm 28.3 29.9 23.2 74 3.5 E 20 28 11 15 1008.5 1008.4 0.0
10/08:00pm 28.2 29.6 22.9 73 3.6 E 20 28 11 15 1008.3 1008.2 0.0
10/07:30pm 28.2 29.2 22.2 70 4.0 E 20 24 11 13 1007.9 1007.8 0.0
10/07:00pm 28.3 29.7 22.5 71 3.9 ESE 19 24 10 13 1007.5 1007.4 0.0
10/06:30pm 28.5 29.8 22.7 71 3.9 ESE 20 28 11 15 1006.9 1006.8 0.0
10/06:00pm 28.8 30.1 22.3 68 4.4 ESE 19 30 10 16 1006.7 1006.6 0.0
10/05:30pm 29.0 30.0 22.2 66 4.6 ESE 20 30 11 16 1006.3 1006.2 0.0
10/05:00pm 29.3 30.4 22.3 66 4.8 ESE 20 28 11 15 1006.0 1005.9 0.0
10/04:30pm 29.2 30.8 22.2 66 4.7 ESE 17 26 9 14 1006.0 1005.9 0.0
10/04:00pm 29.2 31.3 22.4 66 4.6 ESE 15 28 8 15 1006.0 1005.9 0.0
10/03:30pm 29.1 30.3 22.1 66 4.7 SE 19 30 10 16 1006.1 1006.0 0.0
10/03:00pm 29.2 30.4 22.2 66 4.7 SE 19 30 10 16 1006.2 1006.1 0.0
10/02:30pm 29.5 31.1 22.2 65 4.9 SE 17 28 9 15 1006.6 1006.5 0.0
10/02:00pm 29.6 30.6 21.8 63 5.3 SE 19 28 10 15 1007.0 1006.9 0.0
10/01:30pm 29.2 31.2 22.2 66 4.7 SSE 15 35 8 19 1007.6 1007.5 0.0
10/01:00pm 28.7 29.7 22.2 68 4.4 S 20 35 11 19 1008.1 1008.0 0.0
10/12:30pm 28.3 28.6 22.3 70 4.1 S 24 32 13 17 1008.2 1008.1 0.0
10/12:00pm 28.4 28.7 22.2 69 4.2 S 24 30 13 16 1008.6 1008.5 0.0
10/11:30am 28.2 28.2 22.4 71 3.9 S 26 30 14 16 1008.8 1008.7 0.0
10/11:00am 28.1 27.8 21.9 69 4.2 S 26 32 14 17 1009.0 1008.9 0.0
10/10:30am 28.1 28.2 21.9 69 4.2 S 24 30 13 16 1009.2 1009.1 0.0
10/10:00am 28.1 28.2 21.9 69 4.2 S 24 32 13 17 1009.3 1009.2 0.0
10/09:30am 28.1 29.1 22.1 70 4.0 S 20 30 11 16 1009.3 1009.2 0.0
10/09:00am 28.2 29.9 22.4 71 3.9 S 17 24 9 13 1009.4 1009.3 0.0
10/08:30am 28.1 30.5 22.3 70 3.9 S 13 20 7 11 1009.1 1009.0 0.0
10/08:00am 27.8 28.2 21.8 70 4.0 S 22 32 12 17 1008.9 1008.8 0.0
10/07:30am 27.7 27.7 22.4 73 3.6 S 26 35 14 19 1008.7 1008.6 0.0
10/07:00am 27.6 28.5 21.9 71 3.8 S 20 28 11 15 1008.2 1008.1 0.0
10/06:30am 27.5 27.9 21.8 71 3.8 S 22 32 12 17 1007.7 1007.6 0.0
10/06:00am 27.6 28.3 22.3 73 3.6 S 22 35 12 19 1007.3 1007.2 0.0
10/05:30am 27.5 28.7 22.2 73 3.6 S 19 30 10 16 1007.2 1007.1 0.0
10/05:00am 27.5 29.2 22.4 73 3.5 S 17 26 9 14 1007.0 1006.9 0.0
10/04:30am 27.4 28.7 22.6 75 3.2 S 20 30 11 16 1006.9 1006.8 0.0
10/04:00am 27.4 28.8 22.8 76 3.1 S 20 32 11 17 1006.7 1006.6 0.0
10/03:30am 27.7 29.8 23.1 76 3.1 S 17 28 9 15 1006.6 1006.5 0.0
10/03:00am 27.8 29.1 22.7 74 3.5 SE 20 39 11 21 1006.6 1006.5 0.0
10/02:30am 28.3 29.1 22.5 71 3.9 SE 22 37 12 20 1006.7 1006.6 0.0
10/02:00am 28.4 29.1 22.2 69 4.2 SE 22 37 12 20 1006.8 1006.7 0.0
10/01:30am 28.5 29.0 22.7 71 3.9 SE 24 43 13 23 1006.7 1006.6 0.0
10/01:00am 28.6 30.2 23.3 73 3.6 SE 20 37 11 20 1007.5 1007.4 0.0
10/12:30am 28.6 29.2 22.8 71 3.9 ESE 24 43 13 23 1007.9 1007.8 0.0
10/12:00am 28.6 28.5 22.3 68 4.3 ESE 26 41 14 22 1008.4 1008.3 0.0
 
Date/Time
EST
Temp
°C
App
Temp
°C
Dew
Point
Rel
Hum
%
Delta-T
°C
Wind Press
QNH
hPa
Press
MSL
hPa
Rain
since 9 am
mm
Dir
 
Spd
km/h
Gust
km/h
Spd
kts
Gust
kts
09/11:30pm 28.8 29.6 22.5 68 4.3 ESE 22 41 12 22 1009.0 1008.9 0.0
09/11:10pm 28.7 28.2 22.2 68 4.4 ESE 28 46 15 25 1008.9 1008.8 0.0
09/11:00pm 28.7 29.1 23.1 71 3.8 SE 26 46 14 25 1008.8 1008.7 0.0
09/10:30pm 28.7 28.9 22.7 70 4.1 ESE 26 41 14 22 1009.0 1008.9 0.0
09/10:00pm 28.6 29.2 23.5 74 3.5 ESE 26 44 14 24 1009.1 1009.0 0.0
09/09:35pm 28.5 28.3 22.7 71 3.9 ESE 28 46 15 25 1008.9 1008.8 0.0
09/09:30pm 28.6 28.4 22.8 71 3.9 ESE 28 43 15 23 1008.8 1008.7 0.0
09/09:09pm 28.5 28.6 23.2 73 3.6 ESE 28 48 15 26 1008.6 1008.5 0.0
09/09:00pm 28.5 28.9 23.2 73 3.6 ESE 26 39 14 21 1008.6 1008.5 0.0
09/08:30pm 28.6 28.8 23.5 74 3.5 ESE 28 43 15 23 1008.6 1008.5 0.0
09/08:00pm 28.6 29.5 23.9 75 3.3 ESE 26 44 14 24 1008.3 1008.2 0.0
09/07:30pm 28.8 30.3 23.0 71 4.0 SE 20 35 11 19 1007.9 1007.8 0.0
09/07:00pm 28.8 30.0 23.2 71 3.8 ESE 22 35 12 19 1007.6 1007.5 0.0
09/06:30pm 28.9 30.3 22.9 70 4.1 ESE 20 33 11 18 1007.2 1007.1 0.0
09/06:00pm 29.4 30.5 22.4 66 4.8 ESE 20 32 11 17 1006.9 1006.8 0.0
09/05:30pm 29.5 31.1 22.2 65 4.9 ESE 17 32 9 17 1006.8 1006.7 0.0
09/05:00pm 30.2 32.2 22.9 65 5.0 ESE 17 30 9 16 1006.5 1006.4 0.0
09/04:30pm 29.9 30.6 22.9 66 4.8 ESE 24 35 13 19 1006.3 1006.2 0.0
09/04:00pm 29.9 31.5 22.9 66 4.8 ESE 19 32 10 17 1006.4 1006.3 0.0
09/03:30pm 29.7 31.4 22.4 65 5.0 SE 17 32 9 17 1006.6 1006.5 0.0
09/03:00pm 29.6 30.4 21.8 63 5.3 SE 20 32 11 17 1006.8 1006.7 0.0
09/02:30pm 29.7 31.0 22.4 65 5.0 SE 19 32 10 17 1007.2 1007.1 0.0
09/02:00pm 29.5 30.5 22.2 65 5.0 SE 20 33 11 18 1007.6 1007.5 0.0
09/01:30pm 29.6 30.8 22.1 64 5.1 SE 19 32 10 17 1007.9 1007.8 0.0
09/01:00pm 29.5 30.6 22.0 64 5.1 ESE 19 28 10 15 1008.2 1008.1 0.0
09/12:30pm 29.1 30.1 21.8 64 4.9 S 19 26 10 14 1008.8 1008.7 0.0
09/12:00pm 28.9 29.4 21.9 66 4.7 S 22 32 12 17 1009.1 1009.0 0.0
09/11:30am 28.6 28.1 21.4 65 4.8 S 26 35 14 19 1009.3 1009.2 0.0
09/11:00am 28.6 27.4 21.6 66 4.7 S 30 35 16 19 1009.7 1009.6 0.0
09/10:30am 28.5 27.4 21.8 67 4.5 S 30 39 16 21 1009.8 1009.7 0.0
09/10:00am 28.8 30.0 22.5 68 4.3 S 20 28 11 15 1009.9 1009.8 0.0
09/09:30am 28.6 30.3 23.1 72 3.8 S 19 32 10 17 1009.7 1009.6 0.0
09/09:00am 28.3 30.3 23.0 73 3.6 S 17 28 9 15 1009.6 1009.5 14.4
09/08:30am 28.0 30.6 24.0 79 2.8 S 17 24 9 13 1009.5 1009.4 14.4
09/08:00am 27.0 29.8 24.3 85 1.9 SSE 17 28 9 15 1009.3 1009.2 14.2
09/07:30am 27.5 29.0 24.4 83 2.1 S 24 33 13 18 1009.1 1009.0 14.0
09/07:00am 27.5 30.7 24.4 83 2.2 SSE 15 26 8 14 1009.0 1008.9 14.0
09/06:30am 27.7 29.8 24.1 81 2.5 S 20 28 11 15 1008.7 1008.6 14.0
09/06:00am 25.7 28.9 24.3 92 1.0 WSW 15 19 8 10 1008.5 1008.4 14.0
09/05:30am 25.5 28.9 24.1 92 1.0 WNW 13 19 7 10 1008.4 1008.3 13.0
09/05:00am 25.8 28.5 24.2 91 1.1 WSW 17 20 9 11 1008.1 1008.0 9.2
09/04:30am 26.0 28.3 24.4 91 1.1 SW 20 24 11 13 1007.8 1007.7 9.2
09/04:00am 25.8 28.1 24.4 92 1.0 SW 20 24 11 13 1007.7 1007.6 9.2
09/03:30am 25.8 28.2 24.6 93 0.8 SW 20 22 11 12 1007.7 1007.6 9.2
09/03:00am 25.8 27.5 24.6 93 0.8 WSW 24 32 13 17 1007.5 1007.4 9.0
09/02:30am 26.0 28.0 24.6 92 1.0 SW 22 28 12 15 1007.9 1007.8 8.6
09/02:00am 26.3 28.8 24.5 90 1.2 SW 19 26 10 14 1007.9 1007.8 8.6
09/01:30am 26.7 29.6 24.5 88 1.5 SSW 17 20 9 11 1008.0 1007.9 8.6
09/01:00am 26.3 29.0 24.2 88 1.5 S 17 22 9 12 1008.4 1008.3 8.6
09/12:30am 26.1 28.3 24.0 88 1.4 S 19 24 10 13 1008.9 1008.8 8.4
09/12:00am 25.8 27.6 23.5 87 1.6 S 20 26 11 14 1009.3 1009.2 8.4
 
Date/Time
EST
Temp
°C
App
Temp
°C
Dew
Point
Rel
Hum
%
Delta-T
°C
Wind Press
QNH
hPa
Press
MSL
hPa
Rain
since 9 am
mm
Dir
 
Spd
km/h
Gust
km/h
Spd
kts
Gust
kts
08/11:30pm 25.5 26.4 23.4 88 1.4 S 24 32 13 17 1009.8 1009.7 8.4
08/11:00pm 25.1 26.5 23.5 91 1.1 S 22 35 12 19 1010.1 1010.0 7.2
08/10:30pm 25.2 26.0 23.8 92 1.0 S 26 39 14 21 1009.8 1009.7 2.8
08/10:00pm 25.6 25.6 23.7 89 1.3 SE 30 43 16 23 1009.3 1009.2 0.6
08/09:30pm 28.4 29.2 25.0 82 2.4 ESE 30 48 16 26 1009.0 1008.9 0.2
08/09:24pm 28.7 29.9 25.1 81 2.5 ESE 28 46 15 25 1008.7 1008.6 0.2
08/09:00pm 29.0 31.1 25.4 81 2.5 ESE 24 35 13 19 1008.7 1008.6 0.2
08/08:30pm 29.0 31.1 25.4 81 2.5 ESE 24 35 13 19 1008.4 1008.3 0.2
08/08:00pm 29.1 31.2 25.3 80 2.7 ESE 24 37 13 20 1007.9 1007.8 0.2
08/07:30pm 29.2 31.5 25.6 81 2.5 ESE 24 32 13 17 1007.8 1007.7 0.2
08/07:00pm 29.3 31.6 25.7 81 2.6 E 24 30 13 16 1007.7 1007.6 0.2
08/06:30pm 29.3 31.9 25.5 80 2.7 E 22 26 12 14 1007.4 1007.3 0.2
08/06:00pm 29.4 32.3 25.4 79 2.8 E 20 24 11 13 1007.4 1007.3 0.2
08/05:30pm 29.9 33.8 24.8 74 3.6 ESE 13 19 7 10 1007.4 1007.3 0.2
08/05:00pm 30.3 34.2 24.9 73 3.8 ESE 13 19 7 10 1006.9 1006.8 0.2
08/04:30pm 31.8 36.4 24.7 66 5.0 ESE 9 17 5 9 1006.3 1006.2 0.2
08/04:00pm 31.6 36.3 25.0 68 4.7 ESE 9 19 5 10 1006.3 1006.2 0.2
08/03:30pm 30.7 34.8 24.6 70 4.3 ESE 11 15 6 8 1006.1 1006.0 0.2
08/03:00pm 30.6 34.7 24.5 70 4.3 SE 11 19 6 10 1006.5 1006.4 0.2
08/02:30pm 30.8 34.4 24.4 68 4.5 SE 13 19 7 10 1006.8 1006.7 0.2

Other Formats:

Comma delimited format used in spreadsheet applications
http://www.bom.gov.au/fwo/IDQ60801/IDQ60801.94295.axf

JavaScript Object Notation format (JSON) in row-major order
http://www.bom.gov.au/fwo/IDQ60801/IDQ60801.94295.json